sensor_id;sensor_type;location;lat;lon;timestamp;pressure;altitude;pressure_sealevel;temperature;humidity
42125;BME280;27787;44.594;11.046;2023-06-14T00:01:36;100475.06;;;19.26;100.00
42125;BME280;27787;44.594;11.046;2023-06-14T00:04:22;100476.00;;;19.25;100.00
42125;BME280;27787;44.594;11.046;2023-06-14T00:07:09;100472.50;;;19.23;100.00
42125;BME280;27787;44.594;11.046;2023-06-14T00:09:54;100476.94;;;19.24;100.00
42125;BME280;27787;44.594;11.046;2023-06-14T00:12:38;100469.78;;;19.25;100.00
42125;BME280;27787;44.594;11.046;2023-06-14T00:15:23;100470.66;;;19.25;100.00
42125;BME280;27787;44.594;11.046;2023-06-14T00:18:07;100468.09;;;19.22;100.00
42125;BME280;27787;44.594;11.046;2023-06-14T00:20:53;100470.94;;;19.18;100.00
42125;BME280;27787;44.594;11.046;2023-06-14T00:23:37;100473.78;;;19.11;100.00
42125;BME280;27787;44.594;11.046;2023-06-14T00:26:22;100476.56;;;19.08;100.00
42125;BME280;27787;44.594;11.046;2023-06-14T00:29:07;100477.44;;;19.09;100.00
42125;BME280;27787;44.594;11.046;2023-06-14T00:31:51;100474.53;;;19.17;100.00
42125;BME280;27787;44.594;11.046;2023-06-14T00:34:36;100471.75;;;19.20;100.00
42125;BME280;27787;44.594;11.046;2023-06-14T00:37:21;100468.13;;;19.21;100.00
42125;BME280;27787;44.594;11.046;2023-06-14T00:40:06;100479.63;;;19.24;100.00
42125;BME280;27787;44.594;11.046;2023-06-14T00:42:51;100477.09;;;19.20;100.00
42125;BME280;27787;44.594;11.046;2023-06-14T00:45:35;100469.31;;;19.12;100.00
42125;BME280;27787;44.594;11.046;2023-06-14T00:48:20;100466.06;;;19.02;100.00
42125;BME280;27787;44.594;11.046;2023-06-14T00:51:05;100460.75;;;19.01;100.00
42125;BME280;27787;44.594;11.046;2023-06-14T00:53:50;100457.94;;;19.05;100.00
42125;BME280;27787;44.594;11.046;2023-06-14T00:56:36;100452.47;;;19.08;100.00
42125;BME280;27787;44.594;11.046;2023-06-14T00:59:14;100449.00;;;19.06;100.00
42125;BME280;27787;44.594;11.046;2023-06-14T01:02:00;100453.34;;;19.09;100.00
42125;BME280;27787;44.594;11.046;2023-06-14T01:04:46;100444.28;;;19.13;100.00
42125;BME280;27787;44.594;11.046;2023-06-14T01:13:38;100450.44;;;19.17;100.00
42125;BME280;27787;44.594;11.046;2023-06-14T01:16:23;100445.09;;;19.17;100.00
42125;BME280;27787;44.594;11.046;2023-06-14T01:19:10;100443.34;;;19.15;100.00
42125;BME280;27787;44.594;11.046;2023-06-14T01:22:00;100442.81;;;19.04;100.00
42125;BME280;27787;44.594;11.046;2023-06-14T01:24:45;100446.53;;;18.99;100.00
42125;BME280;27787;44.594;11.046;2023-06-14T01:27:30;100436.00;;;18.94;100.00
42125;BME280;27787;44.594;11.046;2023-06-14T01:30:17;100437.69;;;18.97;100.00
42125;BME280;27787;44.594;11.046;2023-06-14T01:33:02;100428.69;;;18.99;100.00
42125;BME280;27787;44.594;11.046;2023-06-14T01:35:50;100427.75;;;19.00;100.00
42125;BME280;27787;44.594;11.046;2023-06-14T01:38:36;100430.50;;;18.99;100.00
42125;BME280;27787;44.594;11.046;2023-06-14T01:41:47;100431.47;;;18.96;100.00
42125;BME280;27787;44.594;11.046;2023-06-14T01:44:32;100426.19;;;18.95;100.00
42125;BME280;27787;44.594;11.046;2023-06-14T01:47:19;100418.25;;;18.92;100.00
42125;BME280;27787;44.594;11.046;2023-06-14T01:50:07;100414.72;;;18.91;100.00
42125;BME280;27787;44.594;11.046;2023-06-14T01:52:51;100413.91;;;18.89;100.00
42125;BME280;27787;44.594;11.046;2023-06-14T01:55:36;100409.53;;;18.85;100.00
42125;BME280;27787;44.594;11.046;2023-06-14T01:58:24;100414.19;;;18.80;100.00
42125;BME280;27787;44.594;11.046;2023-06-14T02:01:10;100408.94;;;18.77;100.00
42125;BME280;27787;44.594;11.046;2023-06-14T02:03:55;100406.44;;;18.71;100.00
42125;BME280;27787;44.594;11.046;2023-06-14T02:06:39;100412.75;;;18.68;100.00
42125;BME280;27787;44.594;11.046;2023-06-14T02:09:24;100409.22;;;18.68;100.00
42125;BME280;27787;44.594;11.046;2023-06-14T02:12:13;100405.63;;;18.69;100.00
42125;BME280;27787;44.594;11.046;2023-06-14T02:14:57;100411.75;;;18.72;100.00
42125;BME280;27787;44.594;11.046;2023-06-14T02:17:45;100408.19;;;18.72;100.00
42125;BME280;27787;44.594;11.046;2023-06-14T02:20:31;100411.03;;;18.67;100.00
42125;BME280;27787;44.594;11.046;2023-06-14T02:23:15;100408.47;;;18.63;100.00
42125;BME280;27787;44.594;11.046;2023-06-14T02:26:00;100400.63;;;18.56;100.00
42125;BME280;27787;44.594;11.046;2023-06-14T02:28:44;100414.16;;;18.52;100.00
42125;BME280;27787;44.594;11.046;2023-06-14T02:31:30;100405.38;;;18.47;100.00
42125;BME280;27787;44.594;11.046;2023-06-14T02:34:14;100404.59;;;18.43;100.00
42125;BME280;27787;44.594;11.046;2023-06-14T02:37:01;100407.38;;;18.40;100.00
42125;BME280;27787;44.594;11.046;2023-06-14T02:39:47;100411.91;;;18.38;100.00
42125;BME280;27787;44.594;11.046;2023-06-14T02:42:31;100413.75;;;18.36;100.00
42125;BME280;27787;44.594;11.046;2023-06-14T02:45:15;100406.63;;;18.35;100.00
42125;BME280;27787;44.594;11.046;2023-06-14T02:48:00;100407.53;;;18.34;100.00
42125;BME280;27787;44.594;11.046;2023-06-14T02:50:45;100402.19;;;18.34;100.00
42125;BME280;27787;44.594;11.046;2023-06-14T02:53:29;100405.78;;;18.33;100.00
42125;BME280;27787;44.594;11.046;2023-06-14T02:56:14;100406.00;;;18.27;100.00
42125;BME280;27787;44.594;11.046;2023-06-14T02:59:02;100411.59;;;18.18;100.00
42125;BME280;27787;44.594;11.046;2023-06-14T03:01:47;100407.28;;;18.14;100.00
42125;BME280;27787;44.594;11.046;2023-06-14T03:04:32;100406.31;;;18.16;100.00
42125;BME280;27787;44.594;11.046;2023-06-14T03:07:47;100409.69;;;18.21;100.00
42125;BME280;27787;44.594;11.046;2023-06-14T03:10:32;100411.44;;;18.24;100.00
42125;BME280;27787;44.594;11.046;2023-06-14T03:13:17;100404.28;;;18.24;100.00
42125;BME280;27787;44.594;11.046;2023-06-14T03:16:06;100407.88;;;18.23;100.00
42125;BME280;27787;44.594;11.046;2023-06-14T03:18:54;100408.81;;;18.21;100.00
42125;BME280;27787;44.594;11.046;2023-06-14T03:21:39;100401.94;;;18.14;100.00
42125;BME280;27787;44.594;11.046;2023-06-14T03:24:28;100402.03;;;18.11;100.00
42125;BME280;27787;44.594;11.046;2023-06-14T03:27:14;100401.16;;;18.10;100.00
42125;BME280;27787;44.594;11.046;2023-06-14T03:30:01;100404.69;;;18.11;100.00
42125;BME280;27787;44.594;11.046;2023-06-14T03:32:47;100400.22;;;18.11;100.00
42125;BME280;27787;44.594;11.046;2023-06-14T03:35:32;100411.75;;;18.13;100.00
42125;BME280;27787;44.594;11.046;2023-06-14T03:38:16;100406.41;;;18.13;100.00
42125;BME280;27787;44.594;11.046;2023-06-14T03:41:00;100406.44;;;18.12;100.00
42125;BME280;27787;44.594;11.046;2023-06-14T03:43:45;100410.03;;;18.11;100.00
42125;BME280;27787;44.594;11.046;2023-06-14T03:46:29;100417.25;;;18.07;100.00
42125;BME280;27787;44.594;11.046;2023-06-14T03:49:13;100411.03;;;18.07;100.00
42125;BME280;27787;44.594;11.046;2023-06-14T03:52:01;100418.13;;;18.08;100.00
42125;BME280;27787;44.594;11.046;2023-06-14T03:54:46;100419.81;;;18.12;100.00
42125;BME280;27787;44.594;11.046;2023-06-14T03:57:32;100426.66;;;18.20;100.00
42125;BME280;27787;44.594;11.046;2023-06-14T04:00:17;100424.78;;;18.24;100.00
42125;BME280;27787;44.594;11.046;2023-06-14T04:03:02;100422.13;;;18.22;100.00
42125;BME280;27787;44.594;11.046;2023-06-14T04:05:48;100420.28;;;18.26;100.00
42125;BME280;27787;44.594;11.046;2023-06-14T04:08:33;100430.13;;;18.24;100.00
42125;BME280;27787;44.594;11.046;2023-06-14T04:11:20;100427.38;;;18.27;100.00
42125;BME280;27787;44.594;11.046;2023-06-14T04:14:05;100429.94;;;18.30;100.00
42125;BME280;27787;44.594;11.046;2023-06-14T04:16:49;100438.00;;;18.28;100.00
42125;BME280;27787;44.594;11.046;2023-06-14T04:19:36;100438.97;;;18.26;100.00
42125;BME280;27787;44.594;11.046;2023-06-14T04:22:20;100443.50;;;18.24;100.00
42125;BME280;27787;44.594;11.046;2023-06-14T04:25:04;100437.28;;;18.22;100.00
42125;BME280;27787;44.594;11.046;2023-06-14T04:27:51;100440.84;;;18.22;100.00
42125;BME280;27787;44.594;11.046;2023-06-14T04:30:36;100441.69;;;18.24;100.00
42125;BME280;27787;44.594;11.046;2023-06-14T04:33:23;100446.94;;;18.27;100.00
42125;BME280;27787;44.594;11.046;2023-06-14T04:36:10;100450.44;;;18.30;100.00
42125;BME280;27787;44.594;11.046;2023-06-14T04:38:58;100447.63;;;18.34;100.00
42125;BME280;27787;44.594;11.046;2023-06-14T04:41:44;100455.53;;;18.39;100.00
42125;BME280;27787;44.594;11.046;2023-06-14T04:44:29;100452.72;;;18.43;100.00
42125;BME280;27787;44.594;11.046;2023-06-14T04:47:20;100457.13;;;18.44;100.00
42125;BME280;27787;44.594;11.046;2023-06-14T04:50:05;100465.16;;;18.44;100.00
42125;BME280;27787;44.594;11.046;2023-06-14T04:52:50;100461.50;;;18.47;100.00
42125;BME280;27787;44.594;11.046;2023-06-14T04:55:35;100471.97;;;18.54;100.00
42125;BME280;27787;44.594;11.046;2023-06-14T04:58:21;100476.31;;;18.58;100.00
42125;BME280;27787;44.594;11.046;2023-06-14T05:01:06;100475.38;;;18.60;100.00
42125;BME280;27787;44.594;11.046;2023-06-14T05:03:54;100472.75;;;18.58;100.00
42125;BME280;27787;44.594;11.046;2023-06-14T05:06:39;100475.56;;;18.53;100.00
42125;BME280;27787;44.594;11.046;2023-06-14T05:09:23;100476.50;;;18.52;100.00
42125;BME280;27787;44.594;11.046;2023-06-14T05:12:08;100478.19;;;18.55;100.00
42125;BME280;27787;44.594;11.046;2023-06-14T05:14:54;100479.13;;;18.54;100.00
42125;BME280;27787;44.594;11.046;2023-06-14T05:17:39;100483.59;;;18.53;100.00
42125;BME280;27787;44.594;11.046;2023-06-14T05:20:24;100482.66;;;18.54;100.00
42125;BME280;27787;44.594;11.046;2023-06-14T05:23:11;100481.78;;;18.54;100.00
42125;BME280;27787;44.594;11.046;2023-06-14T05:25:58;100492.22;;;18.63;100.00
42125;BME280;27787;44.594;11.046;2023-06-14T05:28:51;100486.56;;;18.74;100.00
42125;BME280;27787;44.594;11.046;2023-06-14T05:31:40;100482.94;;;18.76;100.00
42125;BME280;27787;44.594;11.046;2023-06-14T05:34:25;100472.25;;;18.75;100.00
42125;BME280;27787;44.594;11.046;2023-06-14T05:37:10;100460.75;;;18.73;100.00
42125;BME280;27787;44.594;11.046;2023-06-14T05:39:55;100465.22;;;18.72;100.00
42125;BME280;27787;44.594;11.046;2023-06-14T05:42:39;100469.59;;;18.75;100.00
42125;BME280;27787;44.594;11.046;2023-06-14T05:45:23;100463.28;;;18.77;100.00
42125;BME280;27787;44.594;11.046;2023-06-14T05:48:08;100467.47;;;18.86;100.00
42125;BME280;27787;44.594;11.046;2023-06-14T05:50:53;100460.09;;;18.94;100.00
42125;BME280;27787;44.594;11.046;2023-06-14T05:53:37;100470.69;;;18.97;100.00
42125;BME280;27787;44.594;11.046;2023-06-14T05:56:21;100472.34;;;19.01;100.00
42125;BME280;27787;44.594;11.046;2023-06-14T05:59:05;100466.06;;;19.02;100.00
42125;BME280;27787;44.594;11.046;2023-06-14T06:01:49;100466.09;;;19.01;100.00
42125;BME280;27787;44.594;11.046;2023-06-14T06:04:34;100467.94;;;18.99;100.00
42125;BME280;27787;44.594;11.046;2023-06-14T06:07:18;100466.06;;;19.02;100.00
42125;BME280;27787;44.594;11.046;2023-06-14T06:10:04;100468.38;;;19.13;100.00
42125;BME280;27787;44.594;11.046;2023-06-14T06:12:49;100474.25;;;19.24;100.00
42125;BME280;27787;44.594;11.046;2023-06-14T06:15:35;100481.31;;;19.27;100.00
42125;BME280;27787;44.594;11.046;2023-06-14T06:18:21;100481.56;;;19.19;100.00
42125;BME280;27787;44.594;11.046;2023-06-14T06:21:06;100478.25;;;19.11;100.00
42125;BME280;27787;44.594;11.046;2023-06-14T06:23:50;100473.72;;;19.14;100.00
42125;BME280;27787;44.594;11.046;2023-06-14T06:26:35;100480.47;;;19.25;100.00
42125;BME280;27787;44.594;11.046;2023-06-14T06:29:20;100481.94;;;19.35;100.00
42125;BME280;27787;44.594;11.046;2023-06-14T06:32:05;100481.78;;;19.39;100.00
42125;BME280;27787;44.594;11.046;2023-06-14T06:34:49;100481.66;;;19.44;100.00
42125;BME280;27787;44.594;11.046;2023-06-14T06:37:33;100488.53;;;19.51;100.00
42125;BME280;27787;44.594;11.046;2023-06-14T06:40:18;100493.81;;;19.53;100.00
42125;BME280;27787;44.594;11.046;2023-06-14T06:43:03;100493.94;;;19.50;100.00
42125;BME280;27787;44.594;11.046;2023-06-14T06:45:58;100490.59;;;19.43;100.00
42125;BME280;27787;44.594;11.046;2023-06-14T06:48:43;100497.59;;;19.47;100.00
42125;BME280;27787;44.594;11.046;2023-06-14T06:51:28;100502.06;;;19.47;100.00
42125;BME280;27787;44.594;11.046;2023-06-14T06:54:13;100510.00;;;19.50;100.00
42125;BME280;27787;44.594;11.046;2023-06-14T06:57:00;100503.38;;;19.61;100.00
42125;BME280;27787;44.594;11.046;2023-06-14T06:59:45;100496.78;;;19.71;100.00
42125;BME280;27787;44.594;11.046;2023-06-14T07:02:29;100502.81;;;19.78;100.00
42125;BME280;27787;44.594;11.046;2023-06-14T07:05:15;100513.50;;;19.78;100.00
42125;BME280;27787;44.594;11.046;2023-06-14T07:07:59;100505.53;;;19.77;100.00
42125;BME280;27787;44.594;11.046;2023-06-14T07:10:44;100507.03;;;19.85;100.00
42125;BME280;27787;44.594;11.046;2023-06-14T07:13:28;100511.25;;;19.92;100.00
42125;BME280;27787;44.594;11.046;2023-06-14T07:16:13;100511.97;;;19.97;100.00
42125;BME280;27787;44.594;11.046;2023-06-14T07:18:58;100518.31;;;19.95;100.00
42125;BME280;27787;44.594;11.046;2023-06-14T07:21:42;100516.94;;;19.83;100.00
42125;BME280;27787;44.594;11.046;2023-06-14T07:24:26;100513.50;;;19.78;100.00
42125;BME280;27787;44.594;11.046;2023-06-14T07:27:12;100518.06;;;19.76;100.00
42125;BME280;27787;44.594;11.046;2023-06-14T07:29:57;100520.63;;;19.79;100.00
42125;BME280;27787;44.594;11.046;2023-06-14T07:32:41;100526.66;;;19.86;100.00
42125;BME280;27787;44.594;11.046;2023-06-14T07:35:25;100524.69;;;19.91;100.00
42125;BME280;27787;44.594;11.046;2023-06-14T07:38:09;100523.91;;;19.87;100.00
42125;BME280;27787;44.594;11.046;2023-06-14T07:40:53;100531.78;;;19.92;100.00
42125;BME280;27787;44.594;11.046;2023-06-14T07:43:37;100528.84;;;19.99;100.00
42125;BME280;27787;44.594;11.046;2023-06-14T07:46:21;100536.63;;;20.07;100.00
42125;BME280;27787;44.594;11.046;2023-06-14T07:49:05;100537.94;;;20.20;100.00
42125;BME280;27787;44.594;11.046;2023-06-14T07:51:49;100537.72;;;20.26;100.00
42125;BME280;27787;44.594;11.046;2023-06-14T07:54:34;100538.31;;;20.35;100.00
42125;BME280;27787;44.594;11.046;2023-06-14T07:57:19;100535.66;;;20.35;99.79
42125;BME280;27787;44.594;11.046;2023-06-14T08:00:04;100535.09;;;20.50;99.56
42125;BME280;27787;44.594;11.046;2023-06-14T08:02:55;100535.47;;;20.64;100.00
42125;BME280;27787;44.594;11.046;2023-06-14T08:05:42;100531.63;;;20.71;98.95
42125;BME280;27787;44.594;11.046;2023-06-14T08:08:26;100529.34;;;20.84;98.77
42125;BME280;27787;44.594;11.046;2023-06-14T08:11:11;100531.72;;;20.91;98.04
42125;BME280;27787;44.594;11.046;2023-06-14T08:13:56;100532.53;;;20.94;96.22
42125;BME280;27787;44.594;11.046;2023-06-14T08:16:40;100533.47;;;20.92;96.78
42125;BME280;27787;44.594;11.046;2023-06-14T08:19:25;100539.72;;;20.93;97.01
42125;BME280;27787;44.594;11.046;2023-06-14T08:22:09;100524.19;;;21.01;97.48
42125;BME280;27787;44.594;11.046;2023-06-14T08:24:55;100538.00;;;21.14;97.82
42125;BME280;27787;44.594;11.046;2023-06-14T08:27:39;100535.00;;;21.21;96.51
42125;BME280;27787;44.594;11.046;2023-06-14T08:30:24;100537.41;;;21.29;96.21
42125;BME280;27787;44.594;11.046;2023-06-14T08:33:08;100539.16;;;21.30;94.98
42125;BME280;27787;44.594;11.046;2023-06-14T08:35:53;100544.41;;;21.33;95.54
42125;BME280;27787;44.594;11.046;2023-06-14T08:38:37;100545.41;;;21.31;96.61
42125;BME280;27787;44.594;11.046;2023-06-14T08:41:22;100538.28;;;21.30;96.64
42125;BME280;27787;44.594;11.046;2023-06-14T08:44:11;100545.28;;;21.34;97.24
42125;BME280;27787;44.594;11.046;2023-06-14T08:46:59;100548.41;;;21.45;98.14
42125;BME280;27787;44.594;11.046;2023-06-14T08:49:46;100549.56;;;21.60;98.97
42125;BME280;27787;44.594;11.046;2023-06-14T08:52:33;100553.03;;;21.63;96.08
42125;BME280;27787;44.594;11.046;2023-06-14T08:55:24;100556.47;;;21.67;95.12
42125;BME280;27787;44.594;11.046;2023-06-14T08:58:11;100555.31;;;21.72;95.05
42125;BME280;27787;44.594;11.046;2023-06-14T09:00:59;100556.09;;;21.76;97.36
42125;BME280;27787;44.594;11.046;2023-06-14T09:03:45;100555.25;;;21.74;96.22
42125;BME280;27787;44.594;11.046;2023-06-14T09:06:29;100556.19;;;21.73;96.29
42125;BME280;27787;44.594;11.046;2023-06-14T09:09:14;100551.38;;;21.81;98.80
42125;BME280;27787;44.594;11.046;2023-06-14T09:11:58;100552.88;;;21.88;100.00
42125;BME280;27787;44.594;11.046;2023-06-14T09:14:42;100544.59;;;21.93;100.00
42125;BME280;27787;44.594;11.046;2023-06-14T09:17:26;100546.41;;;21.92;99.29
42125;BME280;27787;44.594;11.046;2023-06-14T09:20:10;100538.22;;;21.95;98.43
42125;BME280;27787;44.594;11.046;2023-06-14T09:22:57;100541.34;;;22.06;98.35
42125;BME280;27787;44.594;11.046;2023-06-14T09:25:43;100544.84;;;22.08;98.06
42125;BME280;27787;44.594;11.046;2023-06-14T09:28:27;100541.06;;;22.13;99.27
42125;BME280;27787;44.594;11.046;2023-06-14T09:31:13;100543.72;;;22.14;98.70
42125;BME280;27787;44.594;11.046;2023-06-14T09:33:58;100551.34;;;22.23;95.05
42125;BME280;27787;44.594;11.046;2023-06-14T09:36:45;100549.75;;;22.19;95.94
42125;BME280;27787;44.594;11.046;2023-06-14T09:39:29;100545.19;;;22.21;95.63
42125;BME280;27787;44.594;11.046;2023-06-14T09:42:18;100539.59;;;22.26;94.98
42125;BME280;27787;44.594;11.046;2023-06-14T09:45:07;100542.75;;;22.35;94.69
42125;BME280;27787;44.594;11.046;2023-06-14T09:47:52;100543.38;;;22.42;94.21
42125;BME280;27787;44.594;11.046;2023-06-14T09:50:37;100535.72;;;22.52;93.48
42125;BME280;27787;44.594;11.046;2023-06-14T09:53:22;100544.25;;;22.61;92.59
42125;BME280;27787;44.594;11.046;2023-06-14T09:56:10;100544.19;;;22.63;89.33
42125;BME280;27787;44.594;11.046;2023-06-14T09:58:57;100541.88;;;22.74;88.71
42125;BME280;27787;44.594;11.046;2023-06-14T10:01:43;100542.22;;;22.87;87.62
42125;BME280;27787;44.594;11.046;2023-06-14T10:04:29;100536.47;;;22.94;87.02
42125;BME280;27787;44.594;11.046;2023-06-14T10:07:19;100532.75;;;22.97;86.81
42125;BME280;27787;44.594;11.046;2023-06-14T10:10:07;100530.22;;;22.94;87.10
42125;BME280;27787;44.594;11.046;2023-06-14T10:12:51;100529.28;;;22.95;87.65
42125;BME280;27787;44.594;11.046;2023-06-14T10:16:15;100518.50;;;22.95;86.34
42125;BME280;27787;44.594;11.046;2023-06-14T10:19:24;100524.84;;;22.94;87.13
42125;BME280;27787;44.594;11.046;2023-06-14T10:22:13;100519.66;;;22.89;85.07
42125;BME280;27787;44.594;11.046;2023-06-14T10:24:59;100514.19;;;22.91;86.18
42125;BME280;27787;44.594;11.046;2023-06-14T10:27:44;100511.38;;;22.94;86.13
42125;BME280;27787;44.594;11.046;2023-06-14T10:30:29;100517.25;;;23.02;86.37
42125;BME280;27787;44.594;11.046;2023-06-14T10:33:14;100505.53;;;23.03;84.42
42125;BME280;27787;44.594;11.046;2023-06-14T10:39:18;100501.44;;;23.13;82.38
42125;BME280;27787;44.594;11.046;2023-06-14T10:42:05;100504.84;;;23.17;80.22
42125;BME280;27787;44.594;11.046;2023-06-14T10:44:54;100503.84;;;23.19;76.88
42125;BME280;27787;44.594;11.046;2023-06-14T10:47:43;100498.31;;;23.22;76.53
42125;BME280;27787;44.594;11.046;2023-06-14T10:50:28;100495.31;;;23.29;76.56
42125;BME280;27787;44.594;11.046;2023-06-14T10:53:24;100486.16;;;23.33;74.66
42125;BME280;27787;44.594;11.046;2023-06-14T10:56:22;100486.47;;;23.44;73.95
42125;BME280;27787;44.594;11.046;2023-06-14T10:59:08;100483.13;;;23.56;74.67
42125;BME280;27787;44.594;11.046;2023-06-14T11:04:59;100492.78;;;23.62;75.12
42125;BME280;27787;44.594;11.046;2023-06-14T11:10:38;100474.78;;;23.62;73.39
42125;BME280;27787;44.594;11.046;2023-06-14T11:13:25;100474.38;;;23.70;73.76
42125;BME280;27787;44.594;11.046;2023-06-14T11:16:10;100470.19;;;23.81;73.24
42125;BME280;27787;44.594;11.046;2023-06-14T11:18:56;100468.84;;;23.90;72.57
42125;BME280;27787;44.594;11.046;2023-06-14T11:21:40;100465.84;;;23.96;70.68
42125;BME280;27787;44.594;11.046;2023-06-14T11:24:24;100463.84;;;24.00;70.72
42125;BME280;27787;44.594;11.046;2023-06-14T11:27:09;100468.75;;;24.09;69.96
42125;BME280;27787;44.594;11.046;2023-06-14T11:29:53;100457.97;;;24.09;67.74
42125;BME280;27787;44.594;11.046;2023-06-14T11:32:38;100456.94;;;24.11;69.07
42125;BME280;27787;44.594;11.046;2023-06-14T11:35:23;100453.00;;;24.17;69.92
42125;BME280;27787;44.594;11.046;2023-06-14T11:38:07;100456.84;;;24.13;67.88
42125;BME280;27787;44.594;11.046;2023-06-14T11:40:58;100453.34;;;24.11;68.30
42125;BME280;27787;44.594;11.046;2023-06-14T11:43:42;100452.41;;;24.12;67.88
42125;BME280;27787;44.594;11.046;2023-06-14T11:46:26;100445.78;;;24.18;67.28
42125;BME280;27787;44.594;11.046;2023-06-14T11:49:11;100447.22;;;24.25;67.46
42125;BME280;27787;44.594;11.046;2023-06-14T11:51:55;100449.66;;;24.29;66.31
42125;BME280;27787;44.594;11.046;2023-06-14T11:54:39;100444.03;;;24.34;66.91
42125;BME280;27787;44.594;11.046;2023-06-14T11:57:25;100437.28;;;24.42;67.72
42125;BME280;27787;44.594;11.046;2023-06-14T12:00:10;100442.41;;;24.47;66.80
42125;BME280;27787;44.594;11.046;2023-06-14T12:02:59;100433.28;;;24.50;66.35
42125;BME280;27787;44.594;11.046;2023-06-14T12:05:43;100429.63;;;24.51;66.86
42125;BME280;27787;44.594;11.046;2023-06-14T12:08:38;100426.84;;;24.52;65.92
42125;BME280;27787;44.594;11.046;2023-06-14T12:11:32;100425.97;;;24.52;64.43
42125;BME280;27787;44.594;11.046;2023-06-14T12:14:17;100423.63;;;24.61;64.98
42125;BME280;27787;44.594;11.046;2023-06-14T12:17:06;100424.41;;;24.63;64.28
42125;BME280;27787;44.594;11.046;2023-06-14T12:19:53;100415.28;;;24.66;64.85
42125;BME280;27787;44.594;11.046;2023-06-14T12:22:37;100409.69;;;24.69;64.80
42125;BME280;27787;44.594;11.046;2023-06-14T12:28:12;100405.50;;;24.79;65.71
42125;BME280;27787;44.594;11.046;2023-06-14T12:30:56;100402.28;;;24.88;66.42
42125;BME280;27787;44.594;11.046;2023-06-14T12:33:43;100415.34;;;24.96;64.71
42125;BME280;27787;44.594;11.046;2023-06-14T12:36:29;100414.47;;;24.95;63.45
42125;BME280;27787;44.594;11.046;2023-06-14T12:39:15;100413.50;;;24.96;62.71
42125;BME280;27787;44.594;11.046;2023-06-14T12:41:59;100413.31;;;24.99;63.08
42125;BME280;27787;44.594;11.046;2023-06-14T12:44:44;100412.91;;;25.07;65.92
42125;BME280;27787;44.594;11.046;2023-06-14T12:47:29;100412.81;;;25.09;69.01
42125;BME280;27787;44.594;11.046;2023-06-14T12:50:13;100416.69;;;25.05;69.36
42125;BME280;27787;44.594;11.046;2023-06-14T12:52:58;100414.47;;;24.95;71.14
42125;BME280;27787;44.594;11.046;2023-06-14T12:55:42;100408.47;;;24.90;72.56
42125;BME280;27787;44.594;11.046;2023-06-14T12:58:27;100417.44;;;24.91;73.28
42125;BME280;27787;44.594;11.046;2023-06-14T13:01:11;100423.63;;;24.93;72.83
42125;BME280;27787;44.594;11.046;2023-06-14T13:03:55;100414.66;;;24.92;72.04
42125;BME280;27787;44.594;11.046;2023-06-14T13:06:39;100412.81;;;24.93;71.47
42125;BME280;27787;44.594;11.046;2023-06-14T13:09:24;100419.97;;;24.94;71.61
42125;BME280;27787;44.594;11.046;2023-06-14T13:12:11;100416.38;;;24.93;72.92
42125;BME280;27787;44.594;11.046;2023-06-14T13:14:56;100420.16;;;24.91;73.59
42125;BME280;27787;44.594;11.046;2023-06-14T13:17:40;100416.13;;;24.82;71.84
42125;BME280;27787;44.594;11.046;2023-06-14T13:20:25;100416.13;;;24.82;71.65
42125;BME280;27787;44.594;11.046;2023-06-14T13:23:10;100409.00;;;24.81;71.10
42125;BME280;27787;44.594;11.046;2023-06-14T13:25:54;100407.25;;;24.80;70.76
42125;BME280;27787;44.594;11.046;2023-06-14T13:28:39;100418.91;;;24.81;71.47
42125;BME280;27787;44.594;11.046;2023-06-14T13:31:23;100417.78;;;24.85;71.89
42125;BME280;27787;44.594;11.046;2023-06-14T13:34:07;100413.88;;;24.90;71.85
42125;BME280;27787;44.594;11.046;2023-06-14T13:36:51;100408.75;;;25.02;71.57
42125;BME280;27787;44.594;11.046;2023-06-14T13:39:35;100405.94;;;25.19;70.58
42125;BME280;27787;44.594;11.046;2023-06-14T13:42:21;100399.31;;;25.39;70.07
42125;BME280;27787;44.594;11.046;2023-06-14T13:45:06;100390.56;;;25.49;69.20
42125;BME280;27787;44.594;11.046;2023-06-14T13:47:50;100390.22;;;25.55;68.83
42125;BME280;27787;44.594;11.046;2023-06-14T13:50:35;100382.75;;;25.75;69.87
42125;BME280;27787;44.594;11.046;2023-06-14T13:53:19;100386.16;;;25.93;69.50
42125;BME280;27787;44.594;11.046;2023-06-14T13:56:03;100393.22;;;26.09;69.37
42125;BME280;27787;44.594;11.046;2023-06-14T13:58:48;100382.00;;;26.15;69.15
42125;BME280;27787;44.594;11.046;2023-06-14T14:01:32;100393.41;;;26.06;67.82
42125;BME280;27787;44.594;11.046;2023-06-14T14:04:16;100388.66;;;25.96;67.23
42125;BME280;27787;44.594;11.046;2023-06-14T14:07:02;100396.91;;;26.08;67.44
42125;BME280;27787;44.594;11.046;2023-06-14T14:09:47;100393.63;;;26.17;66.87
42125;BME280;27787;44.594;11.046;2023-06-14T14:12:31;100389.25;;;26.15;65.42
42125;BME280;27787;44.594;11.046;2023-06-14T14:15:15;100400.94;;;26.15;64.90
42125;BME280;27787;44.594;11.046;2023-06-14T14:17:59;100403.75;;;26.14;64.54
42125;BME280;27787;44.594;11.046;2023-06-14T14:20:44;100398.06;;;26.04;65.71
42125;BME280;27787;44.594;11.046;2023-06-14T14:23:28;100397.16;;;26.04;67.04
42125;BME280;27787;44.594;11.046;2023-06-14T14:26:12;100399.97;;;26.02;67.48
42125;BME280;27787;44.594;11.046;2023-06-14T14:28:56;100403.84;;;25.98;67.20